Kansas City, Missouri
Traffic Map
Current Weather Conditions
Kansas City, Missouri
Scattered Clouds
Scattered Clouds
29°
Feels Like: 30°
Wind Chill: 29° Ceiling: Unl
Heat Index: 30° Visibility: 10mi
Dew Point: 18° Wind: 6mph
Humidity: 51% Direction: 110° (ESE)
Pressure: 29.94in Gusts: 0mph
Raw Report DataKMKC 302154Z 11005KT 10SM FEW035 SCT110 29/18 A2994 RMK AO2 RAB12E50 SLP130 P0000 T02940183
Traffic Incident Summary
Active as of:
Severity:
Category:
InformationThere was an issue retrieving the traffic information for this location. Please try a different location or try again shortly.
Advertisements
Track Severe Weather on mobile